Time;durP1;ratioP1;P1;durP2;ratioP2;P2;SDS_P1;SDS_P2;PMS_P1;PMS_P2;Temp;Humidity;BMP_temperature;BMP_pressure;BME280_temperature;BME280_humidity;BME280_pressure;Samples;Min_cycle;Max_cycle;Signal;HPM_P1;HPM_P2
2022/03/31 00:00:53;;;;;;;26.60;12.35;;;10.60;96.80;;;;;;10138043;28;20048;-68
2022/03/31 00:05:45;;;;;;;25.45;13.45;;;10.50;96.80;;;;;;10138739;28;20402;-66
2022/03/31 00:10:43;;;;;;;21.83;11.15;;;10.50;96.90;;;;;;10137342;28;20509;-66
2022/03/31 00:15:35;;;;;;;26.48;12.32;;;10.40;97.00;;;;;;10137086;28;20203;-67
2022/03/31 00:20:26;;;;;;;25.65;11.27;;;10.40;96.80;;;;;;10136194;28;20024;-66
2022/03/31 00:25:17;;;;;;;24.98;10.65;;;10.40;96.90;;;;;;10136011;28;20470;-66
2022/03/31 00:30:10;;;;;;;24.08;12.98;;;10.40;96.90;;;;;;10135937;28;20146;-66
2022/03/31 00:35:01;;;;;;;22.50;11.82;;;10.30;97.10;;;;;;10136495;28;20095;-66
2022/03/31 00:39:52;;;;;;;21.63;11.77;;;10.30;96.80;;;;;;10136461;28;20090;-67
2022/03/31 00:44:43;;;;;;;25.48;11.25;;;10.30;96.90;;;;;;10134122;28;20052;-67
2022/03/31 00:49:34;;;;;;;24.00;12.30;;;10.30;96.90;;;;;;10135675;28;20082;-68
2022/03/31 00:54:25;;;;;;;24.40;11.43;;;10.40;96.80;;;;;;10135630;28;20060;-67
2022/03/31 00:59:20;;;;;;;25.10;11.57;;;10.50;96.70;;;;;;10135892;28;20573;-67
2022/03/31 01:04:12;;;;;;;28.87;12.57;;;10.60;96.60;;;;;;10136456;28;20036;-67
2022/03/31 01:09:04;;;;;;;23.27;11.98;;;10.60;96.70;;;;;;10133887;28;20027;-67
2022/03/31 01:13:55;;;;;;;22.08;10.20;;;10.50;96.70;;;;;;10135744;28;20044;-67
2022/03/31 01:18:46;;;;;;;19.13;10.60;;;10.50;96.70;;;;;;10134738;28;20025;-67
2022/03/31 01:23:37;;;;;;;22.17;11.85;;;10.60;96.50;;;;;;10134437;28;20046;-67
2022/03/31 01:28:28;;;;;;;19.77;12.27;;;10.50;96.70;;;;;;10121803;28;20024;-65
2022/03/31 01:33:19;;;;;;;23.85;11.18;;;10.50;96.90;;;;;;10134060;28;20045;-67
2022/03/31 01:38:09;;;;;;;19.63;10.57;;;10.50;96.80;;;;;;10134373;28;20249;-67
2022/03/31 01:43:00;;;;;;;20.88;11.38;;;10.50;96.80;;;;;;10132992;28;20043;-66
2022/03/31 01:47:51;;;;;;;18.98;10.82;;;10.60;96.70;;;;;;10133492;28;20127;-67
2022/03/31 01:52:42;;;;;;;23.27;11.85;;;10.60;96.60;;;;;;10133823;28;20062;-66
2022/03/31 01:57:33;;;;;;;22.13;11.15;;;10.60;96.70;;;;;;10133233;28;20024;-63
2022/03/31 02:02:24;;;;;;;25.50;12.38;;;10.60;96.60;;;;;;10114683;28;20055;-65
2022/03/31 02:07:14;;;;;;;19.98;10.25;;;10.60;96.80;;;;;;10136182;28;20016;-64
2022/03/31 02:12:06;;;;;;;24.33;10.63;;;10.60;96.60;;;;;;10126147;28;20048;-64
2022/03/31 02:16:58;;;;;;;24.60;11.40;;;10.60;96.70;;;;;;10131809;28;20028;-64
2022/03/31 02:21:49;;;;;;;24.67;12.13;;;10.50;96.80;;;;;;10132202;28;20147;-65
2022/03/31 02:26:40;;;;;;;25.10;12.68;;;10.40;97.00;;;;;;10132630;28;20203;-65
2022/03/31 02:31:32;;;;;;;24.50;11.57;;;10.50;96.90;;;;;;10128745;28;20055;-64
2022/03/31 02:36:23;;;;;;;24.17;12.68;;;10.50;96.90;;;;;;10132101;28;20037;-66
2022/03/31 02:41:14;;;;;;;27.35;12.07;;;10.40;97.00;;;;;;10131281;28;20379;-66
2022/03/31 02:46:05;;;;;;;25.58;12.32;;;10.40;96.90;;;;;;10130157;28;20052;-67
2022/03/31 02:50:55;;;;;;;30.00;11.15;;;10.30;97.10;;;;;;10133389;28;20024;-67
2022/03/31 02:55:46;;;;;;;28.67;12.40;;;10.20;96.90;;;;;;10132014;28;20070;-67
2022/03/31 03:00:37;;;;;;;25.48;12.57;;;10.20;97.10;;;;;;10133390;28;20417;-66
2022/03/31 03:05:28;;;;;;;22.10;10.93;;;10.20;97.00;;;;;;10131274;28;20036;-66
2022/03/31 03:10:19;;;;;;;23.23;11.15;;;10.10;97.20;;;;;;10129693;28;20028;-67
2022/03/31 03:15:10;;;;;;;27.75;11.85;;;10.30;97.00;;;;;;10131746;28;20072;-68
2022/03/31 03:20:01;;;;;;;24.98;12.93;;;10.20;97.10;;;;;;10132284;28;20356;-67
2022/03/31 03:24:52;;;;;;;27.05;12.40;;;10.10;97.20;;;;;;10130766;28;20055;-68
2022/03/31 03:29:46;;;;;;;26.13;12.82;;;10.00;97.20;;;;;;10131218;28;20017;-68
2022/03/31 03:34:37;;;;;;;25.05;12.23;;;10.00;97.40;;;;;;10135797;28;20256;-67
2022/03/31 03:39:27;;;;;;;29.60;12.93;;;10.00;97.40;;;;;;10121203;28;20023;-67
2022/03/31 03:44:18;;;;;;;24.10;11.63;;;9.90;97.50;;;;;;10137166;28;20056;-67
2022/03/31 03:49:09;;;;;;;25.95;13.02;;;9.90;97.60;;;;;;10138221;28;20075;-67
2022/03/31 03:53:59;;;;;;;23.92;11.05;;;9.80;97.70;;;;;;10115354;28;20029;-68
2022/03/31 03:58:50;;;;;;;26.52;12.65;;;9.90;97.70;;;;;;10138956;28;20364;-66
2022/03/31 04:03:41;;;;;;;24.35;11.88;;;9.80;97.70;;;;;;10138867;28;20115;-68
2022/03/31 04:08:31;;;;;;;24.40;12.73;;;9.70;98.00;;;;;;10137833;28;20025;-67
2022/03/31 04:13:22;;;;;;;25.98;12.50;;;9.70;97.90;;;;;;10138330;28;20486;-66
2022/03/31 04:18:13;;;;;;;24.00;12.52;;;9.80;98.10;;;;;;10137032;28;20094;-67
2022/03/31 04:23:04;;;;;;;32.75;13.48;;;9.80;98.00;;;;;;10137073;28;20032;-66
2022/03/31 04:27:54;;;;;;;27.45;13.25;;;9.80;98.20;;;;;;10136721;28;20071;-66
2022/03/31 04:32:45;;;;;;;25.77;12.95;;;9.80;98.30;;;;;;10136971;28;20518;-66
2022/03/31 04:37:36;;;;;;;21.55;12.02;;;9.80;98.50;;;;;;10137506;28;20585;-65
2022/03/31 04:42:27;;;;;;;29.05;12.05;;;9.80;98.60;;;;;;10134034;28;20047;-64
2022/03/31 04:47:17;;;;;;;23.65;11.73;;;9.80;98.50;;;;;;10142114;28;20040;-65
2022/03/31 04:52:08;;;;;;;22.52;12.40;;;9.80;98.50;;;;;;10135300;28;20564;-65
2022/03/31 04:56:59;;;;;;;25.48;12.55;;;9.80;98.70;;;;;;10132574;28;20071;-64
2022/03/31 05:01:50;;;;;;;25.73;11.60;;;9.70;98.70;;;;;;10129443;28;20130;-65
2022/03/31 05:06:41;;;;;;;28.10;13.32;;;9.80;98.70;;;;;;10120440;28;20485;-68
2022/03/31 05:11:32;;;;;;;24.65;11.85;;;9.80;98.80;;;;;;10134382;28;20143;-64
2022/03/31 05:16:22;;;;;;;29.67;13.57;;;9.80;98.80;;;;;;10135421;28;20240;-67
2022/03/31 05:21:14;;;;;;;27.77;13.65;;;9.80;99.10;;;;;;10135364;28;20031;-64
2022/03/31 05:26:04;;;;;;;26.13;12.95;;;9.60;99.40;;;;;;10132643;28;20086;-66
2022/03/31 05:30:55;;;;;;;20.92;11.32;;;9.50;99.50;;;;;;10133555;28;20052;-66
2022/03/31 05:35:46;;;;;;;18.80;10.85;;;9.40;99.40;;;;;;10135557;28;20091;-65
2022/03/31 05:40:37;;;;;;;19.45;9.80;;;9.40;99.40;;;;;;10134238;28;20036;-65
2022/03/31 05:45:28;;;;;;;19.52;9.68;;;9.40;99.40;;;;;;10131470;28;20098;-65
2022/03/31 05:50:18;;;;;;;22.65;11.25;;;9.40;99.60;;;;;;10134410;28;20089;-65
2022/03/31 05:55:12;;;;;;;19.17;9.48;;;9.40;98.90;;;;;;10127770;28;20355;-65
2022/03/31 06:00:06;;;;;;;15.93;9.73;;;9.40;96.60;;;;;;10134380;28;20035;-65
2022/03/31 06:04:57;;;;;;;17.40;8.68;;;9.30;96.00;;;;;;10130275;28;20422;-65
2022/03/31 06:09:48;;;;;;;16.35;9.02;;;9.10;95.80;;;;;;10132579;28;20032;-64
2022/03/31 06:14:38;;;;;;;14.27;8.73;;;9.10;95.90;;;;;;10133335;28;20490;-65
2022/03/31 06:19:29;;;;;;;14.25;7.68;;;9.10;95.70;;;;;;10133364;28;20021;-65
2022/03/31 06:24:20;;;;;;;13.63;8.27;;;9.10;95.90;;;;;;10133355;28;20445;-66
2022/03/31 06:29:10;;;;;;;10.52;6.70;;;9.00;95.90;;;;;;10132279;28;20402;-64
2022/03/31 06:34:01;;;;;;;14.18;7.43;;;9.00;96.10;;;;;;10132645;28;20122;-64
2022/03/31 06:38:52;;;;;;;11.50;6.57;;;8.90;96.30;;;;;;10129371;28;20027;-61
2022/03/31 06:43:48;;;;;;;11.55;6.18;;;8.80;96.10;;;;;;10129677;28;20068;-60
2022/03/31 06:48:43;;;;;;;11.45;6.63;;;8.90;96.00;;;;;;10118803;28;20454;-61
2022/03/31 06:53:37;;;;;;;11.07;6.20;;;9.00;95.80;;;;;;10125698;28;20040;-60
2022/03/31 06:58:30;;;;;;;11.15;6.30;;;9.00;95.80;;;;;;10129720;28;20108;-68
2022/03/31 07:03:20;;;;;;;10.90;6.22;;;8.90;95.80;;;;;;10121397;28;20043;-69
2022/03/31 07:08:11;;;;;;;14.20;8.02;;;8.90;95.80;;;;;;10121493;28;20054;-64
2022/03/31 07:13:02;;;;;;;11.93;6.32;;;9.00;95.70;;;;;;10130619;28;20040;-66
2022/03/31 07:17:54;;;;;;;14.93;7.40;;;9.00;95.80;;;;;;10100675;28;20598;-63
2022/03/31 07:22:50;;;;;;;13.63;7.65;;;8.90;95.70;;;;;;10111788;28;20035;-66
2022/03/31 07:27:40;;;;;;;14.03;7.93;;;8.80;96.00;;;;;;10124540;28;20036;-66
2022/03/31 07:32:32;;;;;;;16.50;8.05;;;8.80;96.00;;;;;;10129453;28;20203;-65
2022/03/31 07:37:23;;;;;;;15.60;8.30;;;8.90;96.00;;;;;;10128530;28;20426;-69
2022/03/31 07:42:14;;;;;;;14.00;8.80;;;9.10;95.80;;;;;;10126400;28;20168;-69
2022/03/31 07:47:06;;;;;;;12.52;7.72;;;9.10;95.70;;;;;;10121791;28;20056;-65
2022/03/31 07:51:57;;;;;;;15.32;8.95;;;9.00;95.90;;;;;;10107863;28;20108;-62
2022/03/31 07:56:48;;;;;;;17.40;8.40;;;8.70;96.20;;;;;;10123090;28;20103;-64
2022/03/31 08:01:38;;;;;;;12.13;7.78;;;9.00;96.00;;;;;;10125641;28;20031;-67
2022/03/31 08:06:29;;;;;;;15.07;8.07;;;8.90;96.00;;;;;;10127948;28;20029;-69
2022/03/31 08:11:20;;;;;;;17.15;8.63;;;9.00;96.00;;;;;;10125956;28;20040;-63
2022/03/31 08:16:11;;;;;;;15.45;8.13;;;9.10;95.90;;;;;;10124981;28;20045;-69
2022/03/31 08:21:02;;;;;;;16.95;8.10;;;9.10;95.90;;;;;;10113160;28;20558;-69
2022/03/31 08:25:54;;;;;;;17.08;8.43;;;9.00;95.90;;;;;;10135557;28;20025;-70
2022/03/31 08:30:44;;;;;;;16.15;8.98;;;9.20;95.90;;;;;;10135296;28;20020;-71
2022/03/31 08:35:35;;;;;;;16.40;8.52;;;9.20;95.60;;;;;;10136454;28;20123;-71
2022/03/31 08:40:26;;;;;;;17.35;7.28;;;9.10;95.80;;;;;;10137054;28;20056;-71
2022/03/31 08:45:18;;;;;;;17.02;8.60;;;9.10;95.80;;;;;;10103489;28;20615;-71
2022/03/31 08:50:09;;;;;;;16.05;8.85;;;9.00;95.90;;;;;;10133572;28;20055;-71
2022/03/31 08:55:00;;;;;;;22.23;8.82;;;9.00;95.70;;;;;;10126251;28;20052;-70
2022/03/31 08:59:51;;;;;;;16.67;9.27;;;9.30;95.50;;;;;;10130768;28;20038;-69
2022/03/31 09:04:41;;;;;;;18.25;9.63;;;9.20;95.40;;;;;;10132730;28;20028;-70
2022/03/31 09:09:46;;;;;;;17.85;8.13;;;9.10;95.30;;;;;;10135113;28;20108;-70
2022/03/31 09:14:37;;;;;;;17.60;9.57;;;9.10;95.40;;;;;;10133059;28;20039;-68
2022/03/31 09:19:28;;;;;;;16.52;8.90;;;9.20;95.60;;;;;;10135410;28;20021;-67
2022/03/31 09:24:21;;;;;;;17.05;8.90;;;9.40;95.40;;;;;;10114764;28;20041;-72
2022/03/31 09:29:13;;;;;;;18.42;9.00;;;9.20;95.30;;;;;;10103309;28;20442;-70
2022/03/31 09:34:03;;;;;;;16.67;9.93;;;9.20;95.40;;;;;;10135574;28;20041;-71
2022/03/31 09:38:58;;;;;;;17.40;8.90;;;9.20;95.10;;;;;;10113824;28;20071;-69
2022/03/31 09:43:50;;;;;;;18.63;9.70;;;9.40;95.10;;;;;;10135897;28;20028;-70
2022/03/31 09:48:41;;;;;;;14.63;8.52;;;9.30;95.10;;;;;;10134136;28;20130;-69
2022/03/31 09:53:32;;;;;;;18.20;9.07;;;9.40;95.20;;;;;;10119416;28;20497;-74
2022/03/31 09:58:24;;;;;;;14.98;8.63;;;9.50;95.00;;;;;;10136503;28;20029;-70
2022/03/31 10:03:17;;;;;;;20.27;10.18;;;9.40;95.30;;;;;;10138105;28;20036;-75
2022/03/31 10:08:10;;;;;;;19.27;9.18;;;9.20;95.20;;;;;;10137910;28;20016;-70
2022/03/31 10:13:22;;;;;;;17.23;8.52;;;9.10;95.60;;;;;;10123828;28;20043;-73
2022/03/31 10:18:14;;;;;;;15.80;9.00;;;9.20;95.40;;;;;;10130418;28;20031;-73
2022/03/31 10:28:22;;;;;;;15.95;7.85;;;9.10;95.50;;;;;;10133619;28;20062;-70
2022/03/31 10:33:13;;;;;;;17.10;9.40;;;9.30;95.60;;;;;;10133587;28;20041;-71
2022/03/31 10:38:17;;;;;;;14.32;8.90;;;9.30;95.50;;;;;;10114701;28;20355;-69
2022/03/31 10:43:28;;;;;;;16.77;8.40;;;9.50;95.40;;;;;;10130618;28;20028;-72
2022/03/31 10:48:21;;;;;;;17.08;8.55;;;9.50;95.70;;;;;;10109966;28;20044;-68
2022/03/31 10:53:13;;;;;;;15.40;8.73;;;9.60;95.50;;;;;;10131090;28;20086;-68
2022/03/31 10:58:05;;;;;;;14.75;8.65;;;9.60;95.40;;;;;;10133097;28;20621;-68
2022/03/31 11:02:56;;;;;;;14.82;8.40;;;9.60;95.60;;;;;;10132978;28;20024;-73
2022/03/31 11:07:48;;;;;;;16.23;8.45;;;9.60;95.60;;;;;;10120303;28;20102;-68
2022/03/31 11:12:40;;;;;;;13.23;7.82;;;9.90;95.40;;;;;;10126105;28;20048;-71
2022/03/31 11:17:31;;;;;;;15.02;8.27;;;9.60;95.50;;;;;;10124334;28;20519;-68
2022/03/31 11:22:24;;;;;;;13.60;7.57;;;9.50;95.50;;;;;;10127777;28;20108;-66
2022/03/31 11:27:14;;;;;;;14.18;7.72;;;9.70;95.40;;;;;;10126050;28;20036;-68
2022/03/31 11:32:05;;;;;;;14.85;9.18;;;9.60;95.40;;;;;;10111997;28;20037;-69
2022/03/31 11:36:57;;;;;;;16.52;9.35;;;9.60;95.70;;;;;;10129515;28;20361;-68
2022/03/31 11:41:49;;;;;;;16.27;9.32;;;9.70;95.40;;;;;;10124096;28;20264;-68
2022/03/31 11:46:40;;;;;;;21.27;10.50;;;9.50;95.60;;;;;;10112277;28;20079;-67
2022/03/31 11:51:32;;;;;;;16.88;8.82;;;9.70;95.40;;;;;;10126918;28;20039;-67
2022/03/31 11:56:24;;;;;;;17.48;8.95;;;9.90;95.20;;;;;;10129147;28;20511;-69
2022/03/31 12:01:22;;;;;;;18.17;10.18;;;9.90;95.30;;;;;;10136068;28;20314;-73
2022/03/31 12:06:16;;;;;;;20.88;9.90;;;9.80;95.40;;;;;;10140090;28;20031;-68
2022/03/31 12:11:10;;;;;;;17.75;10.85;;;9.90;95.40;;;;;;10129309;28;20047;-71
2022/03/31 12:16:06;;;;;;;18.65;10.65;;;10.00;95.10;;;;;;10132255;28;20526;-71
2022/03/31 12:21:00;;;;;;;19.55;10.75;;;10.30;94.90;;;;;;10134198;28;20554;-72
2022/03/31 12:25:52;;;;;;;20.23;11.05;;;10.20;95.00;;;;;;10137954;28;20029;-72
2022/03/31 12:30:47;;;;;;;16.80;10.05;;;10.10;95.20;;;;;;10122681;28;20163;-69
2022/03/31 12:35:41;;;;;;;18.97;11.60;;;10.10;95.00;;;;;;10138579;28;20041;-71
2022/03/31 12:40:35;;;;;;;20.63;12.10;;;10.10;95.20;;;;;;10120901;28;20565;-71
2022/03/31 12:45:30;;;;;;;17.17;10.35;;;10.30;94.90;;;;;;10133367;28;20058;-67
2022/03/31 12:50:24;;;;;;;23.98;12.38;;;10.20;94.90;;;;;;10137697;28;20036;-72
2022/03/31 12:55:15;;;;;;;20.25;11.10;;;10.10;94.90;;;;;;10141268;28;20052;-72
2022/03/31 13:00:11;;;;;;;19.52;11.10;;;10.40;95.00;;;;;;10138898;28;20035;-73
2022/03/31 13:05:06;;;;;;;18.30;10.95;;;10.10;95.00;;;;;;10118323;28;20039;-71
2022/03/31 13:09:59;;;;;;;18.47;10.63;;;10.00;94.90;;;;;;10129212;28;20101;-71
2022/03/31 13:14:56;;;;;;;16.33;10.18;;;10.00;94.90;;;;;;10136180;28;20032;-70
2022/03/31 13:19:48;;;;;;;21.10;11.15;;;9.90;94.80;;;;;;10103361;28;20032;-68
2022/03/31 13:24:40;;;;;;;18.65;10.65;;;10.00;94.70;;;;;;10108286;28;20444;-77
2022/03/31 13:29:32;;;;;;;15.75;9.90;;;10.00;94.70;;;;;;10148739;28;20024;-78
2022/03/31 13:34:30;;;;;;;20.30;10.57;;;10.00;94.60;;;;;;10133422;28;20036;-75
2022/03/31 13:39:21;;;;;;;15.82;9.98;;;10.30;94.40;;;;;;10130776;28;20067;-69
2022/03/31 13:44:12;;;;;;;20.50;10.82;;;10.10;94.40;;;;;;10132116;28;20122;-68
2022/03/31 13:54:50;;;;;;;;;;;10.10;94.50;;;;;;10134685;28;20118;-72
2022/03/31 14:04:50;;;;;;;15.55;8.77;;;9.80;94.20;;;;;;10129261;28;20035;-73
2022/03/31 14:09:41;;;;;;;15.02;8.85;;;9.60;94.40;;;;;;10137915;28;20032;-69
2022/03/31 14:14:32;;;;;;;15.65;8.38;;;9.70;94.20;;;;;;10134590;28;20419;-69
2022/03/31 14:19:34;;;;;;;14.43;7.60;;;9.70;94.10;;;;;;10131919;28;20044;-69
2022/03/31 14:24:25;;;;;;;15.82;9.10;;;9.50;94.10;;;;;;10132340;28;20055;-66
2022/03/31 14:29:16;;;;;;;13.82;8.02;;;9.50;94.20;;;;;;10127711;28;20059;-66
2022/03/31 14:34:13;;;;;;;25.17;10.88;;;9.50;94.30;;;;;;10124529;28;20068;-67
2022/03/31 14:39:09;;;;;;;14.18;8.35;;;9.50;94.30;;;;;;10118429;28;20017;-66
2022/03/31 14:44:02;;;;;;;18.98;9.63;;;9.40;94.50;;;;;;10127656;28;20429;-64
2022/03/31 14:48:53;;;;;;;19.42;9.50;;;9.20;94.50;;;;;;10128285;28;20024;-66
2022/03/31 14:53:44;;;;;;;19.92;9.38;;;9.10;94.70;;;;;;10123931;28;20048;-65
2022/03/31 14:58:35;;;;;;;24.55;12.13;;;9.10;94.70;;;;;;10130994;28;20040;-65
2022/03/31 15:03:26;;;;;;;19.55;11.13;;;9.10;94.40;;;;;;10129231;28;20024;-67
2022/03/31 15:08:17;;;;;;;26.45;13.32;;;9.00;94.60;;;;;;10127568;28;20398;-70
2022/03/31 15:18:17;;;;;;;25.17;12.85;;;9.00;94.60;;;;;;10128977;28;20087;-71
2022/03/31 15:23:08;;;;;;;23.40;14.00;;;9.00;94.60;;;;;;10119865;28;20557;-70
2022/03/31 15:27:59;;;;;;;29.58;15.77;;;8.90;94.40;;;;;;10123326;28;20031;-75
2022/03/31 15:32:50;;;;;;;26.23;12.75;;;8.80;94.40;;;;;;10128475;28;20039;-70
2022/03/31 15:37:41;;;;;;;26.85;12.93;;;8.70;94.70;;;;;;10124865;28;20024;-69
2022/03/31 15:42:31;;;;;;;26.58;13.73;;;8.80;94.70;;;;;;10126015;28;20027;-67
2022/03/31 15:47:22;;;;;;;19.63;11.07;;;8.80;94.70;;;;;;10129774;28;20044;-64
2022/03/31 15:52:13;;;;;;;23.85;11.45;;;8.80;94.90;;;;;;10129573;28;20029;-65
2022/03/31 15:57:04;;;;;;;22.70;11.30;;;8.80;94.80;;;;;;10128287;28;20032;-65
2022/03/31 16:01:55;;;;;;;20.23;11.40;;;8.80;95.00;;;;;;10129635;28;20099;-66
2022/03/31 16:06:47;;;;;;;16.80;8.57;;;8.70;94.90;;;;;;10130531;28;20150;-65
2022/03/31 16:11:38;;;;;;;21.48;11.90;;;8.70;95.20;;;;;;10124087;28;20792;-68
2022/03/31 16:16:29;;;;;;;19.80;9.95;;;8.70;95.00;;;;;;10128680;28;20040;-65
2022/03/31 16:21:21;;;;;;;17.00;10.00;;;8.60;95.10;;;;;;10118514;28;20458;-65
2022/03/31 16:26:17;;;;;;;16.83;9.63;;;8.60;95.10;;;;;;10128091;28;20554;-67
2022/03/31 16:31:07;;;;;;;17.77;9.23;;;8.70;95.10;;;;;;10129070;28;20079;-66
2022/03/31 16:36:04;;;;;;;19.08;9.38;;;8.60;95.30;;;;;;10130447;28;20101;-66
2022/03/31 16:40:55;;;;;;;17.15;10.15;;;8.60;95.30;;;;;;10102203;28;20064;-65
2022/03/31 16:45:46;;;;;;;18.85;10.23;;;8.70;95.30;;;;;;10133844;28;20439;-65
2022/03/31 16:50:37;;;;;;;18.05;10.20;;;8.70;95.30;;;;;;10136968;28;20086;-66
2022/03/31 16:55:27;;;;;;;17.45;8.32;;;8.70;95.40;;;;;;10134266;28;20055;-68
2022/03/31 17:00:19;;;;;;;20.42;10.00;;;8.60;95.50;;;;;;10135131;28;20135;-63
2022/03/31 17:05:10;;;;;;;18.80;9.25;;;8.60;95.40;;;;;;10110656;28;20508;-64
2022/03/31 17:10:01;;;;;;;19.77;10.27;;;8.70;95.40;;;;;;10116702;28;20122;-64
2022/03/31 17:14:51;;;;;;;19.25;9.52;;;8.70;95.40;;;;;;10135751;28;20478;-67
2022/03/31 17:19:42;;;;;;;16.08;8.55;;;8.80;95.20;;;;;;10133392;28;20054;-66
2022/03/31 17:24:33;;;;;;;17.15;8.93;;;8.80;95.20;;;;;;10134556;28;20036;-65
2022/03/31 17:29:24;;;;;;;20.40;9.00;;;8.70;95.20;;;;;;10133250;28;20032;-68
2022/03/31 17:34:15;;;;;;;21.38;10.15;;;8.70;95.50;;;;;;10109577;28;20036;-64
2022/03/31 17:39:05;;;;;;;23.52;10.93;;;8.80;95.40;;;;;;10130628;28;20036;-65
2022/03/31 17:43:56;;;;;;;18.27;10.38;;;8.70;95.20;;;;;;10129944;28;20056;-64
2022/03/31 17:48:47;;;;;;;23.23;11.63;;;8.70;95.30;;;;;;10128816;28;20502;-63
2022/03/31 17:53:38;;;;;;;20.85;11.20;;;8.60;95.30;;;;;;10130203;28;20037;-63
2022/03/31 17:58:28;;;;;;;20.63;10.95;;;8.50;95.40;;;;;;10132074;28;20485;-64
2022/03/31 18:03:19;;;;;;;24.05;11.05;;;8.60;95.40;;;;;;10116051;28;20029;-65
2022/03/31 18:08:11;;;;;;;19.45;10.50;;;8.60;95.50;;;;;;10133434;28;20048;-65
2022/03/31 18:13:02;;;;;;;19.00;9.40;;;8.70;95.30;;;;;;10133181;28;20045;-64
2022/03/31 18:17:53;;;;;;;18.27;9.75;;;8.50;95.30;;;;;;10117979;28;20016;-64
2022/03/31 18:22:45;;;;;;;20.33;11.13;;;8.50;95.30;;;;;;10131401;28;20071;-65
2022/03/31 18:27:38;;;;;;;16.35;7.85;;;8.50;95.40;;;;;;10133105;28;20024;-65
2022/03/31 18:37:38;;;;;;;17.85;8.27;;;8.40;95.60;;;;;;10132516;28;20457;-65
2022/03/31 18:42:29;;;;;;;23.25;10.25;;;8.40;95.60;;;;;;10129981;28;20155;-64
2022/03/31 18:47:19;;;;;;;15.15;8.40;;;8.40;95.50;;;;;;10130716;28;20052;-64
2022/03/31 18:52:10;;;;;;;16.95;8.32;;;8.50;95.40;;;;;;10132781;28;20021;-62
2022/03/31 18:57:02;;;;;;;18.92;8.65;;;8.50;95.50;;;;;;10131098;28;20039;-64
2022/03/31 19:01:53;;;;;;;20.42;10.75;;;8.40;95.40;;;;;;10127534;28;20020;-65
2022/03/31 19:07:02;;;;;;;15.10;8.15;;;8.40;95.40;;;;;;10132227;28;20283;-66
2022/03/31 19:11:53;;;;;;;18.35;9.43;;;8.50;95.40;;;;;;10133925;28;20044;-64
2022/03/31 19:16:45;;;;;;;15.25;8.05;;;8.50;95.30;;;;;;10132823;28;20067;-63
2022/03/31 19:21:35;;;;;;;12.27;7.13;;;8.60;95.20;;;;;;10126801;28;20013;-64
2022/03/31 19:26:26;;;;;;;17.50;8.68;;;8.60;95.20;;;;;;10132035;28;20033;-63
2022/03/31 19:31:17;;;;;;;20.48;9.30;;;8.60;95.30;;;;;;10129493;28;20033;-64
2022/03/31 19:36:10;;;;;;;20.45;9.95;;;8.60;95.10;;;;;;10122217;28;20036;-65
2022/03/31 19:41:01;;;;;;;17.38;8.98;;;8.40;95.10;;;;;;10133215;28;20029;-65
2022/03/31 19:45:52;;;;;;;18.30;9.18;;;8.50;95.20;;;;;;10129424;28;20476;-64
2022/03/31 19:50:43;;;;;;;20.13;10.60;;;8.60;95.30;;;;;;10131855;28;20086;-64
2022/03/31 19:55:34;;;;;;;19.65;10.13;;;8.50;95.20;;;;;;10132009;28;20051;-65
2022/03/31 20:00:25;;;;;;;14.85;9.25;;;8.40;95.30;;;;;;10128848;28;20035;-64
2022/03/31 20:05:17;;;;;;;23.45;11.27;;;8.50;95.50;;;;;;10131230;28;20028;-64
2022/03/31 20:10:08;;;;;;;19.92;11.20;;;8.40;95.40;;;;;;10130199;28;20410;-64
2022/03/31 20:14:59;;;;;;;18.27;10.40;;;8.30;95.30;;;;;;10135290;28;20076;-66
2022/03/31 20:19:51;;;;;;;18.65;10.07;;;8.40;95.40;;;;;;10139530;28;20390;-66
2022/03/31 20:24:45;;;;;;;21.40;10.88;;;8.40;95.30;;;;;;10139628;28;20032;-66
2022/03/31 20:29:36;;;;;;;17.48;9.32;;;8.30;95.30;;;;;;10137216;28;20834;-66
2022/03/31 20:34:28;;;;;;;22.05;9.38;;;8.40;95.40;;;;;;10135451;28;20055;-64
2022/03/31 20:39:18;;;;;;;25.27;12.35;;;8.40;95.60;;;;;;10138574;28;20025;-66
2022/03/31 20:44:09;;;;;;;23.70;12.02;;;8.40;95.30;;;;;;10138067;28;20035;-64
2022/03/31 20:49:01;;;;;;;21.27;11.57;;;8.40;95.40;;;;;;10108576;28;20517;-63
2022/03/31 20:53:52;;;;;;;21.10;10.05;;;8.20;95.40;;;;;;10102109;28;20036;-64
2022/03/31 20:58:42;;;;;;;16.65;9.30;;;8.30;95.50;;;;;;10136641;28;20497;-65
2022/03/31 21:03:33;;;;;;;25.98;13.32;;;8.20;95.40;;;;;;10136777;28;20043;-64
2022/03/31 21:08:24;;;;;;;26.98;11.43;;;8.20;95.30;;;;;;10117854;28;20086;-64
2022/03/31 21:13:14;;;;;;;21.95;11.68;;;8.10;95.40;;;;;;10136313;28;20067;-64
2022/03/31 21:18:08;;;;;;;25.17;13.70;;;8.10;95.30;;;;;;10134436;28;20032;-64
2022/03/31 21:23:00;;;;;;;21.42;11.52;;;8.00;95.30;;;;;;10114704;28;20029;-64
2022/03/31 21:27:51;;;;;;;21.10;11.02;;;7.90;95.30;;;;;;10132924;28;20036;-62
2022/03/31 21:32:42;;;;;;;21.02;11.40;;;8.00;95.30;;;;;;10134937;28;20036;-63
2022/03/31 21:37:33;;;;;;;18.63;10.77;;;7.90;95.20;;;;;;10134528;28;20162;-64
2022/03/31 21:42:24;;;;;;;25.63;13.23;;;8.00;95.30;;;;;;10131022;28;20311;-64
2022/03/31 21:47:15;;;;;;;23.80;12.43;;;7.90;95.30;;;;;;10133847;28;20249;-64
2022/03/31 21:52:06;;;;;;;27.35;11.80;;;7.80;95.30;;;;;;10134267;28;20074;-64
2022/03/31 21:56:56;;;;;;;25.55;11.82;;;7.80;95.30;;;;;;10134307;28;20044;-64
2022/03/31 22:01:47;;;;;;;20.77;10.88;;;7.80;95.40;;;;;;10133162;28;20043;-64
2022/03/31 22:06:38;;;;;;;17.42;9.40;;;7.80;95.40;;;;;;10133183;28;20082;-64
2022/03/31 22:11:36;;;;;;;17.20;10.80;;;7.90;95.40;;;;;;10116479;28;20521;-64
2022/03/31 22:16:27;;;;;;;20.10;10.30;;;7.80;95.30;;;;;;10133711;28;20097;-64
2022/03/31 22:21:18;;;;;;;18.58;9.35;;;7.80;95.40;;;;;;10108499;28;20555;-64
2022/03/31 22:26:09;;;;;;;20.15;10.68;;;7.60;95.60;;;;;;10114976;28;20033;-65
2022/03/31 22:31:00;;;;;;;16.98;9.52;;;7.50;95.50;;;;;;10117201;28;20419;-63
2022/03/31 22:35:50;;;;;;;15.13;9.10;;;7.50;95.60;;;;;;10114752;28;20118;-64
2022/03/31 22:41:06;;;;;;;17.80;11.02;;;7.30;95.70;;;;;;10115071;28;20517;-66
2022/03/31 22:45:57;;;;;;;19.77;10.90;;;7.20;95.70;;;;;;10114714;28;20461;-64
2022/03/31 22:50:47;;;;;;;23.45;10.50;;;7.10;95.70;;;;;;10132286;28;20028;-64
2022/03/31 22:55:38;;;;;;;23.58;11.45;;;7.10;95.80;;;;;;10130891;28;20510;-64
2022/03/31 23:00:29;;;;;;;22.92;13.52;;;7.00;95.80;;;;;;10129343;28;20284;-63
2022/03/31 23:05:20;;;;;;;16.77;8.90;;;6.90;95.70;;;;;;10133070;28;20024;-64
2022/03/31 23:10:10;;;;;;;21.30;10.60;;;6.80;95.90;;;;;;10132524;28;20031;-64
2022/03/31 23:15:01;;;;;;;18.23;9.73;;;6.90;95.70;;;;;;10132849;28;20104;-65
2022/03/31 23:19:54;;;;;;;16.42;10.05;;;6.90;95.70;;;;;;10114059;28;20441;-64
2022/03/31 23:24:45;;;;;;;17.48;10.63;;;7.00;95.70;;;;;;10114123;28;20029;-63
2022/03/31 23:29:35;;;;;;;19.73;9.30;;;6.80;95.60;;;;;;10113283;28;20097;-63
2022/03/31 23:34:26;;;;;;;16.58;10.15;;;6.90;95.50;;;;;;10131003;28;20421;-64
2022/03/31 23:39:17;;;;;;;16.45;9.45;;;6.70;95.50;;;;;;10133268;28;20538;-64
2022/03/31 23:44:08;;;;;;;18.63;9.23;;;6.50;96.10;;;;;;10117252;28;20028;-65
2022/03/31 23:48:58;;;;;;;15.90;8.98;;;6.50;95.70;;;;;;10112996;28;20041;-62
2022/03/31 23:53:53;;;;;;;14.05;7.72;;;6.50;95.60;;;;;;10128272;28;20041;-75
2022/03/31 23:58:44;;;;;;;14.68;8.43;;;6.50;95.70;;;;;;10132298;28;20025;-64
